Terminal Aerodrome Forecast
Issued by NWS

Home | Current Version | Previous Version | Text Only | Print | Product List | Glossary Off
Versions: 1 2 3 4 5 6 7 8 9 10 11 12 13 14 15 16 17 18 19 20 21 22 23 24

000
FTUS43 KGRB 010300 AAB
TAFMTW
TAF AMD
KMTW 010315Z 0103/0124 18004KT 3SM BR BKN004
      TEMPO 0103/0105 1/2SM FG
     FM010600 18005KT 5SM BR SCT007 BKN090
     FM011300 19008KT P6SM BKN090
     FM011600 20010G16KT 3SM SHRA VCTS BKN020CB OVC040
     FM011900 24015G22KT P6SM VCSH SCT025 BKN035=

USA.gov is the U.S. government's official web portal to all federal, state and local government web resources and services.